Time;durP1;ratioP1;P1;durP2;ratioP2;P2;SDS_P1;SDS_P2;PMS_P1;PMS_P2;Temp;Humidity;BMP_temperature;BMP_pressure;BME280_temperature;BME280_humidity;BME280_pressure;Samples;Min_cycle;Max_cycle;Signal;HPM_P1;HPM_P2
2022/05/01 00:00:44;;;;;;;0.80;0.50;;;20.00;54.60;;;;;;4993315;28;20283;-59
2022/05/01 00:03:30;;;;;;;0.57;0.57;;;20.00;54.60;;;;;;4993362;28;20233;-58
2022/05/01 00:06:03;;;;;;;0.50;0.50;;;20.10;54.70;;;;;;4992879;28;20197;-59
2022/05/01 00:08:34;;;;;;;0.60;0.60;;;20.10;54.60;;;;;;4993367;28;20650;-58
2022/05/01 00:11:05;;;;;;;2.10;0.60;;;20.10;54.50;;;;;;4992923;28;20201;-59
2022/05/01 00:13:35;;;;;;;1.02;0.50;;;20.10;54.50;;;;;;4992857;28;20197;-58
2022/05/01 00:16:06;;;;;;;0.50;0.50;;;20.20;54.50;;;;;;4992901;28;20209;-58
2022/05/01 00:18:37;;;;;;;1.45;0.60;;;20.20;54.40;;;;;;4993215;28;20201;-59
2022/05/01 00:21:09;;;;;;;0.73;0.57;;;20.20;54.30;;;;;;4992431;28;20198;-58
2022/05/01 00:23:40;;;;;;;0.70;0.52;;;20.20;54.30;;;;;;4992145;28;20232;-58
2022/05/01 00:26:11;;;;;;;0.80;0.57;;;20.20;54.30;;;;;;4992484;28;20626;-58
2022/05/01 00:28:42;;;;;;;0.63;0.60;;;20.30;54.30;;;;;;4992053;28;20701;-59
2022/05/01 00:31:16;;;;;;;0.98;0.77;;;20.30;54.20;;;;;;4992462;28;20252;-59
2022/05/01 00:36:35;;;;;;;0.90;0.63;;;20.30;54.20;;;;;;4992595;28;20217;-58
2022/05/01 00:39:07;;;;;;;2.65;0.70;;;20.30;54.10;;;;;;4992468;28;20665;-60
2022/05/01 00:41:40;;;;;;;1.58;0.88;;;20.40;54.10;;;;;;4991862;28;20638;-58
2022/05/01 00:44:12;;;;;;;1.50;0.93;;;20.40;54.10;;;;;;4992221;28;20201;-59
2022/05/01 00:46:43;;;;;;;0.85;0.70;;;20.40;54.10;;;;;;4992355;28;20217;-59
2022/05/01 00:49:14;;;;;;;1.13;0.70;;;20.40;54.10;;;;;;4992372;28;20229;-57
2022/05/01 00:51:50;;;;;;;2.95;0.85;;;20.40;54.00;;;;;;4992036;28;20287;-58
2022/05/01 00:54:26;;;;;;;1.83;0.90;;;20.50;53.20;;;;;;4991726;28;20197;-58
2022/05/01 00:56:59;;;;;;;3.85;0.82;;;20.50;52.30;;;;;;4991733;28;20213;-58
2022/05/01 00:59:31;;;;;;;1.17;0.80;;;20.50;52.00;;;;;;4991734;28;20202;-60
2022/05/01 01:02:02;;;;;;;2.80;1.00;;;20.50;52.00;;;;;;4991921;28;20198;-61
2022/05/01 01:04:32;;;;;;;2.65;1.08;;;20.50;52.20;;;;;;4992300;28;20229;-60
2022/05/01 01:07:05;;;;;;;1.90;0.90;;;20.60;52.20;;;;;;4991965;28;20276;-60
2022/05/01 01:09:36;;;;;;;1.92;0.80;;;20.60;52.30;;;;;;4992002;28;20268;-57
2022/05/01 01:15:09;;;;;;;1.73;0.98;;;20.60;52.20;;;;;;4990927;28;20199;-58
2022/05/01 01:17:42;;;;;;;2.25;1.10;;;20.70;52.10;;;;;;4992304;28;20272;-57
2022/05/01 01:20:17;;;;;;;0.73;0.70;;;20.70;52.10;;;;;;4991713;28;20194;-57
2022/05/01 01:22:51;;;;;;;1.67;0.77;;;20.70;52.10;;;;;;4992194;28;20312;-57
2022/05/01 01:25:24;;;;;;;3.10;0.90;;;20.70;52.20;;;;;;4991348;28;20198;-58
2022/05/01 01:27:55;;;;;;;1.30;0.80;;;20.70;52.20;;;;;;4991500;28;20218;-58
2022/05/01 01:33:12;;;;;;;1.20;0.80;;;20.80;52.30;;;;;;4991513;28;20196;-58
2022/05/01 01:35:44;;;;;;;1.00;0.73;;;20.80;52.30;;;;;;4991264;28;20197;-57
2022/05/01 01:38:16;;;;;;;1.30;0.70;;;20.80;52.20;;;;;;4991214;28;20615;-59
2022/05/01 01:40:49;;;;;;;1.45;0.95;;;20.80;52.20;;;;;;4991128;28;20556;-57
2022/05/01 01:43:24;;;;;;;1.30;0.85;;;20.80;52.10;;;;;;4990770;28;20287;-57
2022/05/01 01:45:55;;;;;;;1.85;1.00;;;20.80;52.10;;;;;;4980306;28;20224;-58
2022/05/01 01:48:26;;;;;;;1.42;0.80;;;20.90;52.10;;;;;;4991178;28;20233;-58
2022/05/01 01:51:01;;;;;;;1.73;0.90;;;20.90;52.10;;;;;;4991079;28;20252;-58
2022/05/01 01:53:35;;;;;;;1.65;0.50;;;20.90;52.20;;;;;;4990850;28;20189;-57
2022/05/01 01:56:07;;;;;;;1.58;0.88;;;20.90;52.20;;;;;;4990695;28;20260;-57
2022/05/01 01:58:39;;;;;;;1.98;0.90;;;20.90;52.20;;;;;;4990545;28;20201;-57
2022/05/01 02:01:10;;;;;;;1.13;0.80;;;20.90;52.10;;;;;;4990815;28;20272;-57
2022/05/01 02:03:41;;;;;;;2.58;0.88;;;20.90;52.10;;;;;;4990648;28;20198;-59
2022/05/01 02:06:12;;;;;;;1.42;0.80;;;20.90;52.20;;;;;;4971548;28;20272;-57
2022/05/01 02:08:44;;;;;;;3.20;0.88;;;21.00;52.30;;;;;;4971372;28;20202;-57
2022/05/01 02:11:15;;;;;;;1.73;0.73;;;21.00;52.30;;;;;;4971143;28;20752;-58
2022/05/01 02:13:45;;;;;;;1.38;0.70;;;21.00;52.30;;;;;;4972420;28;20198;-57
2022/05/01 02:16:17;;;;;;;1.10;0.90;;;21.00;52.30;;;;;;4990712;28;20303;-56
2022/05/01 02:18:48;;;;;;;0.88;0.60;;;21.00;52.20;;;;;;4990670;28;20197;-58
2022/05/01 02:21:37;;;;;;;1.45;0.90;;;21.00;52.20;;;;;;4990511;28;20256;-57
2022/05/01 02:24:14;;;;;;;2.33;0.90;;;21.00;52.80;;;;;;4990871;28;20193;-57
2022/05/01 02:26:44;;;;;;;2.13;0.80;;;21.10;52.10;;;;;;4990785;28;20228;-57
2022/05/01 02:29:15;;;;;;;1.95;0.77;;;21.10;52.00;;;;;;4990015;28;20253;-59
2022/05/01 02:31:53;;;;;;;2.22;0.80;;;21.10;51.80;;;;;;4990136;28;20193;-57
2022/05/01 02:34:24;;;;;;;1.40;0.93;;;21.10;51.70;;;;;;4987867;28;20208;-58
2022/05/01 02:36:55;;;;;;;1.70;0.80;;;21.20;51.80;;;;;;4990032;28;20213;-57
2022/05/01 02:39:27;;;;;;;1.92;1.10;;;21.20;51.80;;;;;;4990186;28;20277;-59
2022/05/01 02:41:58;;;;;;;0.90;0.70;;;21.20;51.80;;;;;;4990355;28;20197;-56
2022/05/01 02:44:29;;;;;;;0.85;0.70;;;21.20;51.80;;;;;;4990439;28;20710;-56
2022/05/01 02:47:00;;;;;;;1.92;0.90;;;21.20;51.90;;;;;;4990280;28;20287;-55
2022/05/01 02:49:30;;;;;;;3.00;1.13;;;21.20;51.90;;;;;;4990215;28;20257;-53
2022/05/01 02:52:01;;;;;;;4.05;1.00;;;21.30;51.60;;;;;;4990043;28;20189;-58
2022/05/01 02:54:33;;;;;;;1.95;0.75;;;21.30;51.10;;;;;;4990217;28;20248;-59
2022/05/01 02:57:04;;;;;;;1.17;0.80;;;21.30;51.00;;;;;;4990182;28;20225;-58
2022/05/01 02:59:35;;;;;;;3.08;0.93;;;21.30;51.00;;;;;;4990208;28;20194;-59
2022/05/01 03:02:05;;;;;;;1.60;0.70;;;21.30;51.00;;;;;;4990446;28;20255;-58
2022/05/01 03:04:36;;;;;;;1.52;1.05;;;21.40;51.30;;;;;;4990516;28;20330;-57
2022/05/01 03:07:07;;;;;;;1.30;0.82;;;21.40;51.50;;;;;;4990303;28;20239;-58
2022/05/01 03:09:40;;;;;;;1.45;0.80;;;21.40;51.60;;;;;;4990173;28;20248;-59
2022/05/01 03:12:11;;;;;;;2.58;0.90;;;21.40;51.70;;;;;;4989999;28;20610;-56
2022/05/01 03:14:42;;;;;;;1.08;0.70;;;21.40;51.70;;;;;;4990097;28;20363;-58
2022/05/01 03:17:12;;;;;;;1.27;0.80;;;21.40;51.70;;;;;;4990937;28;20748;-57
2022/05/01 03:22:30;;;;;;;1.58;0.90;;;21.50;51.80;;;;;;4989940;28;20196;-58
2022/05/01 03:25:03;;;;;;;1.20;0.73;;;21.50;51.70;;;;;;4991932;28;20210;-57
2022/05/01 03:27:33;;;;;;;1.17;0.88;;;21.50;51.70;;;;;;4993566;28;20221;-57
2022/05/01 03:30:19;;;;;;;1.63;0.90;;;21.50;51.70;;;;;;4993299;28;20264;-55
2022/05/01 03:32:50;;;;;;;2.47;0.80;;;21.50;51.70;;;;;;4993451;28;20220;-59
2022/05/01 03:35:20;;;;;;;2.17;0.80;;;21.50;51.70;;;;;;4993390;28;20224;-57
2022/05/01 03:37:51;;;;;;;1.83;0.90;;;21.50;51.80;;;;;;4993502;28;20253;-57
2022/05/01 03:40:23;;;;;;;1.95;1.02;;;21.50;51.80;;;;;;4993726;28;20236;-57
2022/05/01 03:42:54;;;;;;;2.70;0.90;;;21.50;51.90;;;;;;4992867;28;20201;-57
2022/05/01 03:45:24;;;;;;;2.38;0.80;;;21.60;52.00;;;;;;4993164;28;20193;-57
2022/05/01 03:47:55;;;;;;;1.30;0.88;;;21.60;52.00;;;;;;4993157;28;20275;-57
2022/05/01 03:50:26;;;;;;;2.05;0.82;;;21.60;51.90;;;;;;4992991;28;20685;-58
2022/05/01 03:52:56;;;;;;;1.30;0.70;;;21.60;52.00;;;;;;4993140;28;20194;-59
2022/05/01 03:55:29;;;;;;;1.98;0.80;;;21.60;52.00;;;;;;4993066;28;20236;-57
2022/05/01 03:57:59;;;;;;;0.90;0.57;;;21.60;52.00;;;;;;4993073;28;20265;-58
2022/05/01 04:00:30;;;;;;;1.50;0.80;;;21.60;51.90;;;;;;4992547;28;20198;-57
2022/05/01 04:03:01;;;;;;;0.65;0.65;;;21.60;51.90;;;;;;4992257;28;20244;-59
2022/05/01 04:05:32;;;;;;;0.77;0.73;;;21.70;52.00;;;;;;4973050;28;20659;-58
2022/05/01 04:08:03;;;;;;;1.13;0.70;;;21.70;51.70;;;;;;4973558;28;20230;-58
2022/05/01 04:10:35;;;;;;;0.88;0.80;;;21.70;51.70;;;;;;4973571;28;20303;-56
2022/05/01 04:13:06;;;;;;;1.20;0.80;;;21.70;51.70;;;;;;4983450;28;20603;-57
2022/05/01 04:15:37;;;;;;;1.58;0.70;;;21.70;51.80;;;;;;4992563;28;20201;-56
2022/05/01 04:18:08;;;;;;;1.65;0.50;;;21.70;51.30;;;;;;4993171;28;20225;-56
2022/05/01 04:20:39;;;;;;;2.00;0.65;;;21.70;50.80;;;;;;4992708;28;20205;-58
2022/05/01 04:23:11;;;;;;;0.50;0.50;;;21.70;50.70;;;;;;4992763;28;20198;-58
2022/05/01 04:25:43;;;;;;;0.50;0.50;;;21.80;50.40;;;;;;4992402;28;20337;-57
2022/05/01 04:28:14;;;;;;;2.95;0.50;;;21.80;49.90;;;;;;4992621;28;20193;-57
2022/05/01 04:30:46;;;;;;;4.13;0.50;;;21.80;49.40;;;;;;4991998;28;20264;-57
2022/05/01 04:33:17;;;;;;;5.05;0.80;;;21.80;48.70;;;;;;4992239;28;20378;-57
2022/05/01 04:35:48;;;;;;;2.97;0.50;;;21.80;48.10;;;;;;4991832;28;20287;-57
2022/05/01 04:38:21;;;;;;;1.50;0.70;;;21.70;47.70;;;;;;4992194;28;20295;-56
2022/05/01 04:40:54;;;;;;;1.35;0.47;;;21.70;47.50;;;;;;4992408;28;20248;-57
2022/05/01 04:43:25;;;;;;;3.35;0.70;;;21.70;47.50;;;;;;5001830;28;20299;-56
2022/05/01 04:45:57;;;;;;;4.00;0.60;;;21.70;47.60;;;;;;5008453;28;20201;-57
2022/05/01 04:48:28;;;;;;;1.85;0.47;;;21.70;47.90;;;;;;5005966;28;20263;-57
2022/05/01 04:50:59;;;;;;;0.65;0.30;;;21.70;48.00;;;;;;5008223;28;20280;-64
2022/05/01 04:53:30;;;;;;;4.95;0.70;;;21.70;48.00;;;;;;5008890;28;20466;-57
2022/05/01 04:57:05;;;;;;;2.38;0.50;;;21.70;48.40;;;;;;5008299;28;20723;-61
2022/05/01 04:58:52;;;;;;;2.70;0.60;;;21.70;48.80;;;;;;5005629;28;20627;-62
2022/05/01 05:01:23;;;;;;;4.25;0.50;;;21.70;49.10;;;;;;5006725;28;20536;-58
2022/05/01 05:03:53;;;;;;;1.42;0.40;;;21.70;49.30;;;;;;5003836;28;20197;-63
2022/05/01 05:06:24;;;;;;;0.75;0.40;;;21.80;49.60;;;;;;5007599;28;20213;-63
2022/05/01 05:11:48;;;;;;;1.17;0.45;;;21.80;50.00;;;;;;4983610;28;20339;-62
2022/05/01 05:14:19;;;;;;;1.23;0.50;;;21.80;50.00;;;;;;5004844;28;20193;-57
2022/05/01 05:16:49;;;;;;;1.55;0.40;;;21.80;50.10;;;;;;5007625;28;20296;-57
2022/05/01 05:19:20;;;;;;;2.53;0.60;;;21.80;50.10;;;;;;5010140;28;20200;-60
2022/05/01 05:21:50;;;;;;;2.17;0.50;;;21.80;50.40;;;;;;5009958;28;20201;-61
2022/05/01 05:24:21;;;;;;;0.77;0.40;;;21.80;50.50;;;;;;5008692;28;20192;-61
2022/05/01 05:26:53;;;;;;;1.52;0.40;;;21.70;50.60;;;;;;5009196;28;20215;-60
2022/05/01 05:29:24;;;;;;;0.60;0.52;;;21.70;50.70;;;;;;5008135;28;20200;-57
2022/05/01 05:31:55;;;;;;;1.17;0.52;;;21.70;50.70;;;;;;5009133;28;20314;-58
2022/05/01 05:34:25;;;;;;;0.70;0.40;;;21.70;50.60;;;;;;5009956;28;20205;-62
2022/05/01 05:36:56;;;;;;;0.98;0.60;;;21.70;50.60;;;;;;5008442;28;20225;-58
2022/05/01 05:39:27;;;;;;;0.88;0.45;;;21.70;50.60;;;;;;5009473;28;21086;-60
2022/05/01 05:41:59;;;;;;;1.50;0.40;;;21.70;50.70;;;;;;5009461;28;20732;-59
2022/05/01 05:44:30;;;;;;;0.63;0.50;;;21.70;50.70;;;;;;5007952;28;20271;-57
2022/05/01 05:47:00;;;;;;;0.40;0.30;;;21.70;50.70;;;;;;5008209;28;20260;-58
2022/05/01 05:49:31;;;;;;;2.03;0.50;;;21.70;50.70;;;;;;5008092;28;20193;-57
2022/05/01 05:52:02;;;;;;;1.17;0.40;;;21.70;51.30;;;;;;5006689;28;20283;-62
2022/05/01 05:54:32;;;;;;;0.60;0.30;;;21.70;50.80;;;;;;5008936;28;20263;-57
2022/05/01 05:57:05;;;;;;;1.00;0.40;;;21.70;50.80;;;;;;5008631;28;20275;-57
2022/05/01 05:59:36;;;;;;;0.55;0.40;;;21.70;51.00;;;;;;5008405;28;20196;-60
2022/05/01 06:02:07;;;;;;;0.50;0.40;;;21.70;51.10;;;;;;5007323;28;20263;-58
2022/05/01 06:04:40;;;;;;;0.30;0.30;;;21.70;51.10;;;;;;5007828;28;20272;-57
2022/05/01 06:07:10;;;;;;;1.38;0.38;;;21.70;51.10;;;;;;5004107;28;20253;-61
2022/05/01 06:09:41;;;;;;;1.05;0.47;;;21.70;51.00;;;;;;5008864;28;20255;-57
2022/05/01 06:12:14;;;;;;;1.48;0.63;;;21.70;51.00;;;;;;5007986;28;20220;-57
2022/05/01 06:14:44;;;;;;;0.52;0.40;;;21.70;50.90;;;;;;5008773;28;20262;-57
2022/05/01 06:17:18;;;;;;;0.95;0.50;;;21.70;50.90;;;;;;5008731;28;20223;-59
2022/05/01 06:19:48;;;;;;;0.43;0.35;;;21.70;51.00;;;;;;5009317;28;20291;-64
2022/05/01 06:22:19;;;;;;;0.50;0.50;;;21.70;51.10;;;;;;5008580;28;20201;-60
2022/05/01 06:24:49;;;;;;;0.50;0.47;;;21.60;51.10;;;;;;5008545;28;20713;-63
2022/05/01 06:27:22;;;;;;;0.60;0.30;;;21.60;51.20;;;;;;5007350;28;20248;-59
2022/05/01 06:29:52;;;;;;;0.45;0.30;;;21.60;51.20;;;;;;5008283;28;20271;-58
2022/05/01 06:32:23;;;;;;;0.43;0.43;;;21.60;51.10;;;;;;5008199;28;20270;-56
2022/05/01 06:34:55;;;;;;;1.55;0.50;;;21.60;51.10;;;;;;5008331;28;20243;-58
2022/05/01 06:37:25;;;;;;;1.83;0.43;;;21.60;51.10;;;;;;5006819;28;20213;-56
2022/05/01 06:39:56;;;;;;;0.50;0.30;;;21.60;51.20;;;;;;5007196;28;20774;-61
2022/05/01 06:42:28;;;;;;;0.30;0.30;;;21.60;51.20;;;;;;5007284;28;20204;-60
2022/05/01 06:44:59;;;;;;;0.40;0.40;;;21.60;51.30;;;;;;5007774;28;20201;-56
2022/05/01 06:47:29;;;;;;;0.60;0.45;;;21.60;51.40;;;;;;5008068;28;20271;-56
2022/05/01 06:50:00;;;;;;;0.43;0.32;;;21.60;51.50;;;;;;5007237;28;20726;-57
2022/05/01 06:52:31;;;;;;;0.40;0.40;;;21.60;51.50;;;;;;5007924;28;20224;-65
2022/05/01 06:55:03;;;;;;;2.95;0.65;;;21.60;52.10;;;;;;5008400;28;20282;-63
2022/05/01 06:57:35;;;;;;;0.50;0.40;;;21.60;51.50;;;;;;5007953;28;20266;-61
2022/05/01 07:00:06;;;;;;;2.53;0.50;;;21.60;51.50;;;;;;5012069;28;20286;-56
2022/05/01 07:02:36;;;;;;;0.85;0.35;;;21.60;51.50;;;;;;5011932;28;20205;-58
2022/05/01 07:05:07;;;;;;;1.45;0.32;;;21.60;51.40;;;;;;5011909;28;20197;-56
2022/05/01 07:07:38;;;;;;;0.45;0.30;;;21.60;52.00;;;;;;5011757;28;20216;-56
2022/05/01 07:10:10;;;;;;;0.70;0.40;;;21.60;52.00;;;;;;5012648;28;20252;-56
2022/05/01 07:12:42;;;;;;;0.35;0.35;;;21.50;51.40;;;;;;5012276;28;20224;-56
2022/05/01 07:15:13;;;;;;;0.30;0.30;;;21.50;51.50;;;;;;5012633;28;20193;-56
2022/05/01 07:17:44;;;;;;;4.50;0.60;;;21.50;51.60;;;;;;5012202;28;20263;-56
2022/05/01 07:20:15;;;;;;;0.68;0.32;;;21.50;51.60;;;;;;5011705;28;20208;-59
2022/05/01 07:22:45;;;;;;;0.47;0.40;;;21.50;51.60;;;;;;5012014;28;20881;-58
2022/05/01 07:25:16;;;;;;;0.68;0.50;;;21.50;51.70;;;;;;5011535;28;20201;-58
2022/05/01 07:27:48;;;;;;;0.40;0.30;;;21.50;51.70;;;;;;5011046;28;20221;-56
2022/05/01 07:30:19;;;;;;;0.90;0.40;;;21.50;51.70;;;;;;5011634;28;20598;-56
2022/05/01 07:32:50;;;;;;;0.88;0.40;;;21.50;51.70;;;;;;5011031;28;20588;-58
2022/05/01 07:35:20;;;;;;;1.05;0.32;;;21.50;51.80;;;;;;5011171;28;20216;-56
2022/05/01 07:37:51;;;;;;;0.45;0.43;;;21.50;51.80;;;;;;5011293;28;20270;-59
2022/05/01 07:40:24;;;;;;;0.60;0.50;;;21.50;51.90;;;;;;5012040;28;20228;-59
2022/05/01 07:42:56;;;;;;;1.38;0.40;;;21.50;51.90;;;;;;5011464;28;20211;-57
2022/05/01 07:45:27;;;;;;;0.45;0.28;;;21.50;52.00;;;;;;5011510;28;20216;-56
2022/05/01 07:47:58;;;;;;;0.43;0.30;;;21.50;51.90;;;;;;5011085;28;20209;-57
2022/05/01 07:50:29;;;;;;;0.40;0.40;;;21.50;52.00;;;;;;5011035;28;20197;-57
2022/05/01 07:53:00;;;;;;;0.57;0.30;;;21.50;52.00;;;;;;5009252;28;20557;-56
2022/05/01 07:55:30;;;;;;;0.75;0.50;;;21.50;52.00;;;;;;5011283;28;20193;-56
2022/05/01 07:58:02;;;;;;;0.40;0.40;;;21.50;52.00;;;;;;5002637;28;20249;-58
2022/05/01 08:00:33;;;;;;;0.82;0.43;;;21.50;52.00;;;;;;4994446;28;20194;-62
2022/05/01 08:05:50;;;;;;;0.50;0.40;;;21.50;52.00;;;;;;4994298;28;20240;-57
2022/05/01 08:08:21;;;;;;;0.73;0.35;;;21.50;52.10;;;;;;4994464;28;20201;-56
2022/05/01 08:10:51;;;;;;;0.60;0.40;;;21.40;52.10;;;;;;4993403;28;20218;-54
2022/05/01 08:13:24;;;;;;;1.38;0.40;;;21.40;52.10;;;;;;4994184;28;20201;-56
2022/05/01 08:15:54;;;;;;;0.40;0.30;;;21.40;52.10;;;;;;4994318;28;20252;-58
2022/05/01 08:21:11;;;;;;;0.30;0.30;;;21.40;52.10;;;;;;4994642;28;20208;-60
2022/05/01 08:23:43;;;;;;;0.30;0.30;;;21.40;52.20;;;;;;4994599;28;20201;-56
2022/05/01 08:26:16;;;;;;;0.50;0.40;;;21.40;52.10;;;;;;4993954;28;20217;-56
2022/05/01 08:28:49;;;;;;;0.90;0.40;;;21.40;52.20;;;;;;4993784;28;20198;-56
2022/05/01 08:31:20;;;;;;;0.93;0.40;;;21.40;52.30;;;;;;4994158;28;20712;-57
2022/05/01 08:33:50;;;;;;;0.28;0.28;;;21.40;52.30;;;;;;4994155;28;20228;-56
2022/05/01 08:36:21;;;;;;;1.65;0.35;;;21.40;52.30;;;;;;4993932;28;20225;-59
2022/05/01 08:38:52;;;;;;;0.57;0.28;;;21.40;52.40;;;;;;4993797;28;20237;-59
2022/05/01 08:41:22;;;;;;;0.35;0.35;;;21.40;52.30;;;;;;4994238;28;20208;-55
2022/05/01 08:43:58;;;;;;;0.77;0.40;;;21.40;52.30;;;;;;4993733;28;20206;-58
2022/05/01 08:46:57;;;;;;;0.77;0.40;;;21.40;52.30;;;;;;4994216;28;20221;-57
2022/05/01 08:49:29;;;;;;;0.30;0.30;;;21.40;52.30;;;;;;4993170;28;20217;-60
2022/05/01 08:52:02;;;;;;;0.52;0.22;;;21.40;52.30;;;;;;4993241;28;20272;-58
2022/05/01 08:54:34;;;;;;;0.38;0.30;;;21.40;52.30;;;;;;4993645;28;20257;-57
2022/05/01 08:57:06;;;;;;;0.40;0.40;;;21.40;52.40;;;;;;4993760;28;20243;-56
2022/05/01 08:59:40;;;;;;;0.30;0.30;;;21.40;52.40;;;;;;4992988;28;20617;-56
2022/05/01 09:02:13;;;;;;;0.40;0.40;;;21.40;53.00;;;;;;4993342;28;20201;-57
2022/05/01 09:04:44;;;;;;;0.20;0.20;;;21.40;52.40;;;;;;4993096;28;20598;-56
2022/05/01 09:07:15;;;;;;;0.40;0.38;;;21.40;53.00;;;;;;5000727;28;20259;-58
2022/05/01 09:09:45;;;;;;;0.45;0.30;;;21.40;52.50;;;;;;5009963;28;20292;-56
2022/05/01 09:15:04;;;;;;;0.60;0.30;;;21.40;52.50;;;;;;5008927;28;20334;-55
2022/05/01 09:17:35;;;;;;;0.60;0.30;;;21.40;52.50;;;;;;5010237;28;20263;-56
2022/05/01 09:20:10;;;;;;;0.32;0.30;;;21.40;52.60;;;;;;5006138;28;20323;-56
2022/05/01 09:22:54;;;;;;;0.20;0.20;;;21.40;52.60;;;;;;5009186;28;20193;-56
2022/05/01 09:25:26;;;;;;;0.45;0.30;;;21.40;52.60;;;;;;5009296;28;20200;-56
2022/05/01 09:27:59;;;;;;;0.25;0.22;;;21.40;52.70;;;;;;5008492;28;20699;-58
2022/05/01 09:30:36;;;;;;;0.40;0.40;;;21.40;52.70;;;;;;5009194;28;20193;-56
2022/05/01 09:33:07;;;;;;;1.23;0.50;;;21.40;52.70;;;;;;5009247;28;20715;-58
2022/05/01 09:35:38;;;;;;;0.30;0.30;;;21.40;52.70;;;;;;5009723;28;20248;-56
2022/05/01 09:38:19;;;;;;;0.47;0.45;;;21.40;52.70;;;;;;5009519;28;20219;-56
2022/05/01 09:40:50;;;;;;;0.30;0.30;;;21.40;52.70;;;;;;5009484;28;20228;-57
2022/05/01 09:43:36;;;;;;;0.30;0.30;;;21.40;52.70;;;;;;5008627;28;20208;-57
2022/05/01 09:46:19;;;;;;;0.30;0.30;;;21.40;52.80;;;;;;5008014;28;21481;-56
2022/05/01 09:49:01;;;;;;;1.15;0.30;;;21.40;52.80;;;;;;5009166;28;20255;-61
2022/05/01 09:51:32;;;;;;;1.20;0.20;;;21.40;52.80;;;;;;5009315;28;20307;-60
2022/05/01 09:54:04;;;;;;;1.15;0.38;;;21.40;52.80;;;;;;5008400;28;20193;-57
2022/05/01 09:56:47;;;;;;;0.20;0.20;;;21.40;52.80;;;;;;5008171;28;20213;-57
2022/05/01 09:59:19;;;;;;;0.35;0.35;;;21.40;52.80;;;;;;5007084;28;20185;-56
2022/05/01 10:02:09;;;;;;;0.35;0.35;;;21.40;52.80;;;;;;5008454;28;20244;-56
2022/05/01 10:04:40;;;;;;;0.20;0.20;;;21.40;52.80;;;;;;5008154;28;20204;-58
2022/05/01 10:07:11;;;;;;;0.50;0.30;;;21.40;52.80;;;;;;5008737;28;20282;-61
2022/05/01 10:09:42;;;;;;;0.30;0.30;;;21.40;52.80;;;;;;5004476;28;20836;-56
2022/05/01 10:12:14;;;;;;;0.30;0.30;;;21.40;52.80;;;;;;5006889;28;20221;-57
2022/05/01 10:14:45;;;;;;;0.30;0.30;;;21.40;52.90;;;;;;5008507;28;20197;-57
2022/05/01 10:17:18;;;;;;;0.10;0.10;;;21.30;52.80;;;;;;5007968;28;20212;-59
2022/05/01 10:19:51;;;;;;;0.35;0.35;;;21.40;53.00;;;;;;5008755;28;20239;-56
2022/05/01 10:22:23;;;;;;;0.17;0.17;;;21.40;53.00;;;;;;5009532;28;20251;-57
2022/05/01 10:24:53;;;;;;;0.55;0.38;;;21.40;53.00;;;;;;5006937;28;20200;-57
2022/05/01 10:27:33;;;;;;;0.20;0.20;;;21.40;52.90;;;;;;5007721;28;20224;-57
2022/05/01 10:33:39;;;;;;;0.47;0.30;;;21.40;53.00;;;;;;5008069;28;20236;-57
2022/05/01 10:36:42;;;;;;;0.28;0.28;;;21.40;53.00;;;;;;5008544;28;20224;-58
2022/05/01 10:39:14;;;;;;;0.63;0.32;;;21.30;52.90;;;;;;5009045;28;20208;-60
2022/05/01 10:41:45;;;;;;;0.63;0.30;;;21.30;52.90;;;;;;5007205;28;20206;-56
2022/05/01 10:44:30;;;;;;;0.82;0.20;;;21.30;52.90;;;;;;5009153;28;20287;-61
2022/05/01 10:47:12;;;;;;;0.20;0.20;;;21.30;53.00;;;;;;5008521;28;20213;-58
2022/05/01 10:49:49;;;;;;;0.30;0.20;;;21.30;52.90;;;;;;5007905;28;20251;-57
2022/05/01 10:52:21;;;;;;;0.25;0.20;;;21.30;53.00;;;;;;5008080;28;20224;-57
2022/05/01 10:54:56;;;;;;;0.30;0.30;;;21.30;52.90;;;;;;5007936;28;20193;-59
2022/05/01 10:57:27;;;;;;;12.25;2.55;;;21.30;52.90;;;;;;5007886;28;20580;-58
2022/05/01 11:00:10;;;;;;;44.97;9.05;;;21.30;53.30;;;;;;5007295;28;21547;-58
2022/05/01 11:02:48;;;;;;;36.90;8.48;;;21.30;54.00;;;;;;5006526;28;20259;-59
2022/05/01 11:05:49;;;;;;;39.38;8.55;;;21.30;54.30;;;;;;5008620;28;20706;-60
2022/05/01 11:08:23;;;;;;;34.20;7.03;;;21.40;54.60;;;;;;5008675;28;20206;-61
2022/05/01 11:10:56;;;;;;;21.55;4.97;;;21.40;54.80;;;;;;5007761;28;20199;-61
2022/05/01 11:13:31;;;;;;;21.42;5.63;;;21.40;54.90;;;;;;5007805;28;20231;-59
2022/05/01 11:16:02;;;;;;;26.95;5.35;;;21.40;54.80;;;;;;5008012;28;20192;-60
2022/05/01 11:18:35;;;;;;;22.00;5.20;;;21.40;54.80;;;;;;5008098;28;20193;-57
2022/05/01 11:21:38;;;;;;;22.17;5.05;;;21.40;54.70;;;;;;5008517;28;20197;-61
2022/05/01 11:24:13;;;;;;;19.98;4.80;;;21.40;54.60;;;;;;5007140;28;20200;-59
2022/05/01 11:27:17;;;;;;;22.52;5.60;;;21.40;54.50;;;;;;5007645;28;20223;-58
2022/05/01 11:30:22;;;;;;;19.13;5.25;;;21.40;54.50;;;;;;5008093;28;20193;-57
2022/05/01 11:32:53;;;;;;;20.02;4.63;;;21.40;54.40;;;;;;5008422;28;20225;-61
2022/05/01 11:35:43;;;;;;;16.75;5.10;;;21.40;54.30;;;;;;5007923;28;20671;-56
2022/05/01 11:38:16;;;;;;;17.55;4.53;;;21.40;54.30;;;;;;5008186;28;20952;-61
2022/05/01 11:40:57;;;;;;;21.67;4.95;;;21.40;54.30;;;;;;5007659;28;20189;-61
2022/05/01 11:43:28;;;;;;;14.52;4.63;;;21.40;54.20;;;;;;5008376;28;20254;-61
2022/05/01 11:45:59;;;;;;;17.45;4.68;;;21.40;54.20;;;;;;5008852;28;20271;-60
2022/05/01 11:48:30;;;;;;;17.60;4.38;;;21.40;54.20;;;;;;5010835;28;20383;-60
2022/05/01 11:51:01;;;;;;;15.40;4.13;;;21.40;54.10;;;;;;5012096;28;20239;-59
2022/05/01 11:53:34;;;;;;;13.40;4.43;;;21.40;54.10;;;;;;5003104;28;20261;-56
2022/05/01 12:04:37;;;;;;;11.82;3.55;;;21.40;54.00;;;;;;4975979;28;20288;-57
2022/05/01 12:07:11;;;;;;;13.18;3.67;;;21.40;54.00;;;;;;4992893;28;20288;-57
2022/05/01 12:09:45;;;;;;;12.70;3.80;;;21.40;54.00;;;;;;4992919;28;20662;-59
2022/05/01 12:12:19;;;;;;;11.80;3.58;;;21.30;53.90;;;;;;4993040;28;20229;-58
2022/05/01 12:14:51;;;;;;;11.52;3.83;;;21.30;53.90;;;;;;4992638;28;20201;-59
2022/05/01 12:17:23;;;;;;;9.70;3.42;;;21.30;53.90;;;;;;4991926;28;20292;-59
2022/05/01 12:19:54;;;;;;;9.20;3.38;;;21.30;53.90;;;;;;4990975;28;20194;-59
2022/05/01 12:22:25;;;;;;;10.00;3.00;;;21.30;53.90;;;;;;4993541;28;20218;-61
2022/05/01 12:24:58;;;;;;;9.80;2.95;;;21.30;54.00;;;;;;4992618;28;20205;-58
2022/05/01 12:27:29;;;;;;;8.95;3.28;;;21.30;53.90;;;;;;4992541;28;20256;-58
2022/05/01 12:30:02;;;;;;;9.43;2.85;;;21.30;53.90;;;;;;4992471;28;20577;-57
2022/05/01 12:32:32;;;;;;;9.32;2.92;;;21.30;53.90;;;;;;4991478;28;20229;-57
2022/05/01 12:35:05;;;;;;;8.07;2.88;;;21.30;53.90;;;;;;4991907;28;20201;-59
2022/05/01 12:37:38;;;;;;;8.05;3.25;;;21.30;53.90;;;;;;4992014;28;20225;-60
2022/05/01 12:40:12;;;;;;;9.10;3.10;;;21.30;53.90;;;;;;4992309;28;20201;-59
2022/05/01 12:45:40;;;;;;;9.45;2.83;;;21.30;53.90;;;;;;4992586;28;20208;-58
2022/05/01 12:48:13;;;;;;;9.38;2.78;;;21.30;53.90;;;;;;4992552;28;20217;-61
2022/05/01 12:50:45;;;;;;;8.27;2.58;;;21.30;53.90;;;;;;4992945;28;20204;-57
2022/05/01 12:53:26;;;;;;;5.80;2.47;;;21.30;53.90;;;;;;4992415;28;20229;-57
2022/05/01 12:55:59;;;;;;;6.95;2.80;;;21.30;53.90;;;;;;4991931;28;20281;-58
2022/05/01 12:58:33;;;;;;;8.43;2.65;;;21.30;53.90;;;;;;4991894;28;20592;-57
2022/05/01 13:01:07;;;;;;;8.77;2.65;;;21.20;53.90;;;;;;4991660;28;20623;-57
2022/05/01 13:03:38;;;;;;;8.50;2.85;;;21.20;53.90;;;;;;4991717;28;20252;-58
2022/05/01 13:06:11;;;;;;;9.75;2.78;;;21.20;53.90;;;;;;4991754;28;20321;-59
2022/05/01 13:08:43;;;;;;;6.03;2.50;;;21.20;53.90;;;;;;4991196;28;20193;-57
2022/05/01 13:11:23;;;;;;;5.40;2.42;;;21.20;53.80;;;;;;4992019;28;20252;-56
2022/05/01 13:13:59;;;;;;;7.72;2.00;;;21.20;53.80;;;;;;4991405;28;20288;-56
2022/05/01 13:16:44;;;;;;;6.13;2.70;;;21.20;53.90;;;;;;4991174;28;20221;-59
2022/05/01 13:19:15;;;;;;;8.00;2.55;;;21.20;53.90;;;;;;4991748;28;20201;-57
2022/05/01 13:21:47;;;;;;;6.68;2.30;;;21.20;53.90;;;;;;4992344;28;20198;-58
2022/05/01 13:24:18;;;;;;;5.97;2.33;;;21.20;53.90;;;;;;4991393;28;20615;-57
2022/05/01 13:26:51;;;;;;;6.43;2.30;;;21.20;53.90;;;;;;4991434;28;20392;-57
2022/05/01 13:29:21;;;;;;;6.88;2.42;;;21.20;53.90;;;;;;4991091;28;20201;-58
2022/05/01 13:31:52;;;;;;;5.18;2.00;;;21.20;54.10;;;;;;4991209;28;20700;-57
2022/05/01 13:34:23;;;;;;;7.22;2.38;;;21.20;53.90;;;;;;4990674;28;20244;-59
2022/05/01 13:36:54;;;;;;;4.28;2.08;;;21.20;53.90;;;;;;4991119;28;20225;-61
2022/05/01 13:44:44;;;;;;;5.22;2.38;;;21.20;53.90;;;;;;4990323;28;20229;-61
2022/05/01 13:45:03;;;;;;;4.57;2.05;;;21.20;54.00;;;;;;4989733;28;20204;-60
2022/05/01 13:47:36;;;;;;;3.95;2.13;;;21.20;53.90;;;;;;4991000;28;20225;-57
2022/05/01 13:50:07;;;;;;;4.28;1.98;;;21.20;53.90;;;;;;4991503;28;20229;-62
2022/05/01 13:52:37;;;;;;;6.22;2.00;;;21.20;54.00;;;;;;4990303;28;20253;-58
2022/05/01 13:55:09;;;;;;;3.70;1.80;;;21.10;53.90;;;;;;4990516;28;20194;-58